createdAt,value
2022-09-20T00:01:32.586Z,100882.78
2022-09-20T00:04:01.463Z,100887.22
2022-09-20T00:06:30.718Z,100885.78
2022-09-20T00:08:57.963Z,100877.56
2022-09-20T00:11:28.523Z,100875.31
2022-09-20T00:13:57.908Z,100873.22
2022-09-20T00:16:27.627Z,100866.41
2022-09-20T00:18:57.161Z,100877.53
2022-09-20T00:21:29.222Z,100879.75
2022-09-20T00:23:57.542Z,100878.19
2022-09-20T00:26:26.873Z,100880.81
2022-09-20T00:28:54.515Z,100883.59
2022-09-20T00:31:21.373Z,100871.22
2022-09-20T00:34:06.904Z,100878.19
2022-09-20T00:36:33.738Z,100872.50
2022-09-20T00:39:02.182Z,100857.84
2022-09-20T00:41:31.377Z,100852.44
2022-09-20T00:43:58.158Z,100842.38
2022-09-20T00:46:41.639Z,100840.06
2022-09-20T00:49:28.931Z,100826.22
2022-09-20T00:52:01.553Z,100821.97
2022-09-20T00:54:30.430Z,100819.00
2022-09-20T00:56:58.063Z,100818.03
2022-09-20T00:59:35.883Z,100818.50
2022-09-20T01:02:20.311Z,100823.25
2022-09-20T01:04:48.628Z,100816.09
2022-09-20T01:07:19.167Z,100827.09
2022-09-20T01:09:45.829Z,100812.50
2022-09-20T01:12:20.446Z,100813.59
2022-09-20T01:14:48.585Z,100811.72
2022-09-20T01:17:16.049Z,100817.53
2022-09-20T01:19:53.980Z,100815.41
2022-09-20T01:22:33.335Z,100811.34
2022-09-20T01:25:11.598Z,100809.34
2022-09-20T01:27:46.705Z,100812.88
2022-09-20T01:30:22.116Z,100815.78
2022-09-20T01:32:51.724Z,100814.59
2022-09-20T01:35:21.397Z,100815.53
2022-09-20T01:38:25.678Z,100776.53
2022-09-20T01:41:19.691Z,100786.22
2022-09-20T01:44:07.136Z,100796.81
2022-09-20T01:46:35.860Z,100780.41
2022-09-20T01:49:40.078Z,100777.31
2022-09-20T01:52:22.347Z,100796.41
2022-09-20T01:55:19.809Z,100790.16
2022-09-20T01:58:03.321Z,100794.19
2022-09-20T02:01:05.427Z,100786.00
2022-09-20T02:04:02.987Z,100793.34
2022-09-20T02:06:53.935Z,100786.97
2022-09-20T02:10:05.684Z,100791.31
2022-09-20T02:13:15.830Z,100817.28
2022-09-20T02:16:13.424Z,100818.44
2022-09-20T02:19:11.846Z,100824.88
2022-09-20T02:22:17.499Z,100822.84
2022-09-20T02:25:27.283Z,100820.22
2022-09-20T02:28:27.676Z,100823.22
2022-09-20T02:31:22.122Z,100823.91
2022-09-20T02:34:26.418Z,100821.84
2022-09-20T02:37:21.232Z,100823.22
2022-09-20T02:39:53.884Z,100824.84
2022-09-20T02:42:34.945Z,100830.56
2022-09-20T02:45:18.644Z,100822.44
2022-09-20T02:47:47.087Z,100830.56
2022-09-20T02:50:25.769Z,100825.34
2022-09-20T02:53:13.671Z,100830.41
2022-09-20T02:56:11.449Z,100833.22
2022-09-20T02:58:53.332Z,100829.94
2022-09-20T03:01:48.320Z,100831.47
2022-09-20T03:04:21.395Z,100822.22
2022-09-20T03:06:50.999Z,100830.41
2022-09-20T03:09:26.667Z,100826.28
2022-09-20T03:12:06.909Z,100845.00
2022-09-20T03:14:47.940Z,100841.19
2022-09-20T03:17:42.517Z,100842.06
2022-09-20T03:20:27.926Z,100837.53
2022-09-20T03:23:42.516Z,100839.19
2022-09-20T03:26:24.250Z,100845.03
2022-09-20T03:29:03.507Z,100852.19
2022-09-20T03:32:00.626Z,100845.19
2022-09-20T03:34:52.929Z,100851.56
2022-09-20T03:37:40.765Z,100854.72
2022-09-20T03:40:35.457Z,100855.91
2022-09-20T03:43:21.604Z,100855.75
2022-09-20T03:46:17.535Z,100860.06
2022-09-20T03:49:13.473Z,100859.72
2022-09-20T03:51:58.154Z,100859.78
2022-09-20T03:54:43.602Z,100853.44
2022-09-20T03:57:13.142Z,100857.72
2022-09-20T04:00:02.931Z,100862.44
2022-09-20T04:02:51.248Z,100856.84
2022-09-20T04:05:27.057Z,100855.00
2022-09-20T04:08:00.874Z,100849.78
2022-09-20T04:10:38.055Z,100851.81
2022-09-20T04:13:56.016Z,100855.13
2022-09-20T04:16:45.705Z,100863.94
2022-09-20T04:19:32.734Z,100877.97
2022-09-20T04:22:01.762Z,100884.00
2022-09-20T04:24:28.817Z,100877.66
2022-09-20T04:27:42.140Z,100876.53
2022-09-20T04:30:22.478Z,100881.16
2022-09-20T04:33:27.399Z,100897.09
2022-09-20T04:36:29.223Z,100902.13
2022-09-20T04:39:17.399Z,100895.28
2022-09-20T04:42:08.621Z,100888.22
2022-09-20T04:44:53.555Z,100894.66
2022-09-20T04:48:01.753Z,100890.91
2022-09-20T04:51:22.571Z,100897.25
2022-09-20T04:54:21.537Z,100888.03
2022-09-20T04:57:20.657Z,100888.59
2022-09-20T05:00:12.214Z,100894.16
2022-09-20T05:03:11.131Z,100901.91
2022-09-20T05:05:41.184Z,100902.63
2022-09-20T05:08:45.273Z,100901.44
2022-09-20T05:11:36.740Z,100911.13
2022-09-20T05:14:33.170Z,100908.38
2022-09-20T05:17:09.187Z,100909.00
2022-09-20T05:20:12.015Z,100922.63
2022-09-20T05:23:06.510Z,100911.75
2022-09-20T05:25:54.841Z,100917.78
2022-09-20T05:28:35.070Z,100919.19
2022-09-20T05:31:11.836Z,100930.75
2022-09-20T05:33:51.136Z,100945.59
2022-09-20T05:36:34.437Z,100947.53
2022-09-20T05:39:27.916Z,100943.91
2022-09-20T05:42:07.233Z,100948.63
2022-09-20T05:44:55.150Z,100949.63
2022-09-20T05:47:31.585Z,100944.16
2022-09-20T05:50:20.770Z,100950.38
2022-09-20T05:53:05.472Z,100943.19
2022-09-20T05:56:01.184Z,100942.94
2022-09-20T05:58:43.566Z,100947.03
2022-09-20T06:01:17.876Z,100934.66
2022-09-20T06:03:54.444Z,100933.09
2022-09-20T06:06:38.585Z,100925.91
2022-09-20T06:09:17.349Z,100908.75
2022-09-20T06:12:30.747Z,100894.34
2022-09-20T06:15:04.774Z,100878.41
2022-09-20T06:17:38.679Z,100875.44
2022-09-20T06:20:23.575Z,100903.63
2022-09-20T06:23:00.181Z,100942.25
2022-09-20T06:25:51.046Z,100978.63
2022-09-20T06:28:20.840Z,100997.69
2022-09-20T06:30:50.123Z,101012.56
2022-09-20T06:33:22.604Z,101040.00
2022-09-20T06:36:27.756Z,101070.13
2022-09-20T06:39:22.142Z,101091.63
2022-09-20T06:41:49.624Z,101119.34
2022-09-20T06:44:16.301Z,101130.16
2022-09-20T06:46:43.135Z,101138.59
2022-09-20T06:49:09.961Z,101132.19
2022-09-20T06:51:38.673Z,101130.75
2022-09-20T06:54:07.522Z,101131.56
2022-09-20T06:56:36.705Z,101135.19
2022-09-20T06:59:06.097Z,101131.16
2022-09-20T07:01:32.933Z,101141.16
2022-09-20T07:03:59.748Z,101137.28
2022-09-20T07:06:27.408Z,101143.06
2022-09-20T07:08:54.078Z,101144.03
2022-09-20T07:11:23.135Z,101144.34
2022-09-20T07:13:55.050Z,101143.22
2022-09-20T07:16:22.372Z,101140.31
2022-09-20T07:18:49.419Z,101153.69
2022-09-20T07:21:17.716Z,101164.09
2022-09-20T07:23:48.627Z,101165.47
2022-09-20T07:26:22.790Z,101172.06
2022-09-20T07:28:50.540Z,101171.41
2022-09-20T07:31:23.087Z,101193.72
2022-09-20T07:33:50.214Z,101201.19
2022-09-20T07:36:17.331Z,101208.72
2022-09-20T07:38:51.018Z,101224.84
2022-09-20T07:41:22.893Z,101213.53
2022-09-20T07:43:52.520Z,101241.84
2022-09-20T07:46:22.233Z,101250.00
2022-09-20T07:48:49.162Z,101276.78
2022-09-20T07:51:15.985Z,101296.06
2022-09-20T07:53:42.790Z,101311.03
2022-09-20T07:56:16.699Z,101339.66
2022-09-20T07:58:48.707Z,101375.88
2022-09-20T08:01:20.963Z,101388.34
2022-09-20T08:03:48.216Z,101401.00
2022-09-20T08:06:16.468Z,101421.78
2022-09-20T08:08:43.475Z,101419.56
2022-09-20T08:11:27.731Z,101442.66
2022-09-20T08:14:11.536Z,101473.19
2022-09-20T08:16:41.162Z,101499.13
2022-09-20T08:19:08.129Z,101504.81
2022-09-20T08:21:38.000Z,101538.84
2022-09-20T08:24:04.789Z,101555.66
2022-09-20T08:26:31.795Z,101575.50
2022-09-20T08:29:00.290Z,101610.75
2022-09-20T08:31:31.535Z,101627.75
2022-09-20T08:33:59.180Z,101630.53
2022-09-20T08:36:26.587Z,101659.47
2022-09-20T08:41:47.504Z,101709.22
2022-09-20T08:44:27.255Z,101737.41
2022-09-20T08:47:10.000Z,101750.53
2022-09-20T08:49:38.057Z,101784.88
2022-09-20T08:52:10.327Z,101806.72
2022-09-20T08:54:37.413Z,101841.75
2022-09-20T08:57:11.070Z,101872.84
2022-09-20T08:59:37.939Z,101891.75
2022-09-20T09:02:19.716Z,101916.31
2022-09-20T09:04:46.829Z,101936.38
2022-09-20T09:07:16.027Z,101941.53
2022-09-20T09:09:44.779Z,101937.38
2022-09-20T09:12:27.057Z,101951.16
2022-09-20T09:14:59.661Z,101962.31
2022-09-20T09:17:28.870Z,101972.28
2022-09-20T09:19:57.106Z,101985.47
2022-09-20T09:22:40.271Z,101987.56
2022-09-20T09:25:07.018Z,101990.75
2022-09-20T09:27:35.164Z,102005.38
2022-09-20T09:30:01.909Z,101987.91
2022-09-20T09:32:33.001Z,102006.19
2022-09-20T09:35:22.894Z,101999.88
2022-09-20T09:38:21.547Z,101989.34
2022-09-20T09:41:00.553Z,102026.25
2022-09-20T09:43:33.084Z,102025.25
2022-09-20T09:46:21.355Z,102025.66
2022-09-20T09:49:12.269Z,102029.44
2022-09-20T09:51:43.175Z,102016.69
2022-09-20T09:54:18.154Z,102011.66
2022-09-20T09:57:16.346Z,102006.59
2022-09-20T10:00:12.681Z,102019.41
2022-09-20T10:03:09.082Z,102013.56
2022-09-20T10:06:10.847Z,102005.66
2022-09-20T10:08:52.378Z,102019.78
2022-09-20T10:11:25.068Z,102010.59
2022-09-20T10:14:17.146Z,101998.16
2022-09-20T10:17:25.153Z,102001.25
2022-09-20T10:20:31.141Z,101974.59
2022-09-20T10:24:03.102Z,101976.38
2022-09-20T10:26:39.208Z,102010.06
2022-09-20T10:29:26.208Z,102009.56
2022-09-20T10:32:13.839Z,102011.63
2022-09-20T10:34:56.384Z,102000.53
2022-09-20T10:38:00.885Z,102012.66
2022-09-20T10:40:55.244Z,101990.94
2022-09-20T10:43:40.268Z,101978.38
2022-09-20T10:46:38.258Z,101995.13
2022-09-20T10:49:28.959Z,101993.09
2022-09-20T10:52:01.590Z,101999.84
2022-09-20T10:55:04.620Z,102002.38
2022-09-20T10:57:49.839Z,102032.94
2022-09-20T11:00:42.226Z,102008.00
2022-09-20T11:03:22.470Z,102056.97
2022-09-20T11:06:03.366Z,102038.78
2022-09-20T11:08:37.807Z,102045.31
2022-09-20T11:11:14.530Z,102024.38
2022-09-20T11:13:48.586Z,102044.47
2022-09-20T11:16:24.903Z,102046.06
2022-09-20T11:19:05.070Z,102011.94
2022-09-20T11:21:38.886Z,102011.22
2022-09-20T11:24:15.572Z,102018.34
2022-09-20T11:26:48.128Z,102030.22
2022-09-20T11:29:22.711Z,102006.94
2022-09-20T11:31:55.148Z,102031.25
2022-09-20T11:34:28.291Z,102012.28
2022-09-20T11:37:02.652Z,102009.72
2022-09-20T11:39:35.237Z,102048.47
2022-09-20T11:42:05.229Z,102028.00
2022-09-20T11:44:32.970Z,102011.41
2022-09-20T11:47:53.382Z,102040.66
2022-09-20T11:50:45.788Z,102025.97
2022-09-20T11:53:42.259Z,101997.47
2022-09-20T11:56:08.967Z,102034.88
2022-09-20T11:58:55.227Z,102014.47
2022-09-20T12:01:32.401Z,102000.47
2022-09-20T12:07:24.543Z,102006.22
2022-09-20T12:10:00.832Z,102015.97
2022-09-20T12:12:47.892Z,102000.69
2022-09-20T12:15:34.571Z,102019.59
2022-09-20T12:18:09.348Z,101959.66
2022-09-20T12:20:36.361Z,101983.69
2022-09-20T12:23:43.354Z,102006.94
2022-09-20T12:26:20.344Z,101984.34
2022-09-20T12:28:54.426Z,102003.47
2022-09-20T12:31:26.231Z,101996.25
2022-09-20T12:34:02.289Z,101963.34
2022-09-20T12:36:36.199Z,101976.31
2022-09-20T12:39:12.167Z,101959.88
2022-09-20T12:41:51.449Z,101962.50
2022-09-20T12:44:27.155Z,101985.19
2022-09-20T12:46:59.622Z,101931.50
2022-09-20T12:49:47.956Z,101945.19
2022-09-20T12:52:44.404Z,101904.19
2022-09-20T12:55:26.005Z,101892.38
2022-09-20T12:57:58.034Z,101904.00
2022-09-20T13:00:38.156Z,101912.47
2022-09-20T13:03:23.868Z,101930.09
2022-09-20T13:06:12.044Z,102002.72
2022-09-20T13:09:09.759Z,101992.75
2022-09-20T13:11:52.538Z,101955.94
2022-09-20T13:14:31.357Z,101953.94
2022-09-20T13:17:10.157Z,101965.81
2022-09-20T13:19:44.122Z,102005.56
2022-09-20T13:22:30.283Z,101945.03
2022-09-20T13:25:00.892Z,101907.75
2022-09-20T13:27:30.107Z,101926.81
2022-09-20T13:30:10.050Z,101983.56
2022-09-20T13:32:41.619Z,101979.75
2022-09-20T13:35:13.815Z,101986.94
2022-09-20T13:37:47.058Z,102022.28
2022-09-20T13:40:33.257Z,101976.59
2022-09-20T13:43:24.215Z,101995.66
2022-09-20T13:46:16.422Z,101903.72
2022-09-20T13:48:46.174Z,101871.53
2022-09-20T13:51:27.114Z,101828.81
2022-09-20T13:53:54.498Z,101869.09
2022-09-20T13:56:28.788Z,101967.50
2022-09-20T13:58:58.965Z,101999.69
2022-09-20T14:01:30.410Z,101996.84
2022-09-20T14:04:06.985Z,102044.28
2022-09-20T14:06:34.946Z,101993.16
2022-09-20T14:09:08.353Z,102013.72
2022-09-20T14:11:37.740Z,102077.09
2022-09-20T14:14:07.732Z,102107.03
2022-09-20T14:16:45.204Z,102082.25
2022-09-20T14:19:15.727Z,102063.22
2022-09-20T14:21:43.630Z,101995.34
2022-09-20T14:24:13.297Z,102008.63
2022-09-20T14:26:42.375Z,101963.81
2022-09-20T14:29:33.854Z,101944.69
2022-09-20T14:32:06.409Z,101932.41
2022-09-20T14:34:37.780Z,102015.16
2022-09-20T14:37:16.685Z,101977.72
2022-09-20T14:39:49.811Z,101952.03
2022-09-20T14:42:41.292Z,101923.03
2022-09-20T14:45:20.664Z,101904.53
2022-09-20T14:48:11.435Z,101973.63
2022-09-20T14:50:40.596Z,101956.22
2022-09-20T14:53:10.840Z,101917.91
2022-09-20T14:55:39.676Z,101968.47
2022-09-20T14:58:15.114Z,102016.78
2022-09-20T15:00:57.940Z,102056.38
2022-09-20T15:03:28.520Z,102053.03
2022-09-20T15:05:55.632Z,102037.44
2022-09-20T15:08:23.457Z,102071.81
2022-09-20T15:10:50.318Z,102079.53
2022-09-20T15:13:17.668Z,102082.88
2022-09-20T15:15:44.496Z,102080.63
2022-09-20T15:18:26.668Z,102085.78
2022-09-20T15:20:54.636Z,102104.22
2022-09-20T15:23:21.885Z,102123.09
2022-09-20T15:25:53.390Z,102139.19
2022-09-20T15:28:21.213Z,102140.47
2022-09-20T15:30:52.768Z,102151.81
2022-09-20T15:33:21.353Z,102167.81
2022-09-20T15:35:48.530Z,102176.75
2022-09-20T15:38:18.286Z,102180.56
2022-09-20T15:40:47.881Z,102172.03
2022-09-20T15:43:23.869Z,102173.91
2022-09-20T15:45:53.567Z,102192.25
2022-09-20T15:48:23.348Z,102209.66
2022-09-20T15:51:03.199Z,102221.84
2022-09-20T15:53:35.731Z,102239.56
2022-09-20T15:56:24.365Z,102244.97
2022-09-20T15:58:58.963Z,102239.72
2022-09-20T16:01:32.373Z,102225.81
2022-09-20T16:03:59.925Z,102217.13
2022-09-20T16:06:26.748Z,102211.25
2022-09-20T16:08:53.425Z,102211.91
2022-09-20T16:11:22.970Z,102205.59
2022-09-20T16:13:57.570Z,102217.56
2022-09-20T16:16:26.053Z,102215.25
2022-09-20T16:19:11.600Z,102205.03
2022-09-20T16:21:44.043Z,102221.00
2022-09-20T16:24:12.551Z,102235.22
2022-09-20T16:26:40.259Z,102238.34
2022-09-20T16:29:07.595Z,102260.06
2022-09-20T16:31:39.476Z,102275.69
2022-09-20T16:34:21.311Z,102277.38
2022-09-20T16:36:56.838Z,102280.66
2022-09-20T16:39:27.682Z,102280.81
2022-09-20T16:42:05.887Z,102280.16
2022-09-20T16:44:36.534Z,102290.38
2022-09-20T16:47:08.021Z,102294.09
2022-09-20T16:49:36.303Z,102296.38
2022-09-20T16:52:07.909Z,102305.47
2022-09-20T16:54:34.699Z,102307.28
2022-09-20T16:57:01.958Z,102316.00
2022-09-20T16:59:28.884Z,102319.63
2022-09-20T17:01:55.758Z,102321.00
2022-09-20T17:04:23.200Z,102322.22
2022-09-20T17:06:50.883Z,102323.25
2022-09-20T17:09:17.615Z,102328.91
2022-09-20T17:11:50.390Z,102330.56
2022-09-20T17:14:21.044Z,102338.25
2022-09-20T17:16:48.407Z,102341.38
2022-09-20T17:19:18.607Z,102343.00
2022-09-20T17:21:49.348Z,102342.75
2022-09-20T17:24:17.562Z,102340.72
2022-09-20T17:26:45.441Z,102346.03
2022-09-20T17:29:17.038Z,102341.22
2022-09-20T17:31:51.476Z,102351.69
2022-09-20T17:34:22.096Z,102351.63
2022-09-20T17:36:54.187Z,102350.44
2022-09-20T17:39:20.846Z,102347.44
2022-09-20T17:41:49.426Z,102354.31
2022-09-20T17:44:17.128Z,102353.97
2022-09-20T17:46:46.248Z,102360.81
2022-09-20T17:49:15.870Z,102364.22
2022-09-20T17:51:45.834Z,102364.81
2022-09-20T17:54:14.259Z,102367.00
2022-09-20T17:56:47.134Z,102362.22
2022-09-20T17:59:16.185Z,102367.47
2022-09-20T18:01:44.824Z,102367.41
2022-09-20T18:04:11.895Z,102364.31
2022-09-20T18:06:49.956Z,102369.28
2022-09-20T18:09:19.683Z,102365.84
2022-09-20T18:11:50.023Z,102360.78
2022-09-20T18:14:28.073Z,102358.66
2022-09-20T18:16:58.202Z,102361.91
2022-09-20T18:19:32.294Z,102357.59
2022-09-20T18:21:59.996Z,102345.59
2022-09-20T18:24:26.611Z,102342.22
2022-09-20T18:26:53.429Z,102340.56
2022-09-20T18:29:20.293Z,102333.06
2022-09-20T18:31:54.395Z,102328.56
2022-09-20T18:34:22.976Z,102330.47
2022-09-20T18:36:55.716Z,102327.34
2022-09-20T18:39:28.095Z,102326.16
2022-09-20T18:41:55.150Z,102323.66
2022-09-20T18:44:23.023Z,102322.13
2022-09-20T18:46:55.056Z,102318.16
2022-09-20T18:49:22.231Z,102321.84
2022-09-20T18:51:49.690Z,102309.91
2022-09-20T18:54:17.709Z,102310.72
2022-09-20T18:56:46.314Z,102306.25
2022-09-20T18:59:22.201Z,102296.97
2022-09-20T19:01:58.200Z,102297.94
2022-09-20T19:04:59.682Z,102298.25
2022-09-20T19:07:38.418Z,102297.69
2022-09-20T19:10:26.656Z,102297.69
2022-09-20T19:13:05.504Z,102291.50
2022-09-20T19:16:19.350Z,102288.00
2022-09-20T19:19:08.056Z,102281.75
2022-09-20T19:21:34.938Z,102283.97
2022-09-20T19:24:10.054Z,102292.13
2022-09-20T19:26:38.663Z,102292.56
2022-09-20T19:29:22.845Z,102277.81
2022-09-20T19:31:53.583Z,102286.13
2022-09-20T19:34:23.713Z,102281.84
2022-09-20T19:37:12.360Z,102280.38
2022-09-20T19:40:11.294Z,102272.31
2022-09-20T19:42:55.160Z,102270.03
2022-09-20T19:45:44.654Z,102267.09
2022-09-20T19:48:22.122Z,102269.25
2022-09-20T19:50:52.571Z,102266.66
2022-09-20T19:53:22.322Z,102268.47
2022-09-20T19:56:25.377Z,102262.84
2022-09-20T19:58:55.051Z,102259.91
2022-09-20T20:01:25.908Z,102259.25
2022-09-20T20:03:54.401Z,102256.69
2022-09-20T20:06:37.012Z,102262.31
2022-09-20T20:09:21.901Z,102257.16
2022-09-20T20:12:03.048Z,102252.84
2022-09-20T20:15:07.497Z,102243.22
2022-09-20T20:18:04.727Z,102253.47
2022-09-20T20:20:50.587Z,102249.53
2022-09-20T20:23:41.988Z,102228.47
2022-09-20T20:26:10.090Z,102219.78
2022-09-20T20:28:38.455Z,102211.72
2022-09-20T20:31:06.379Z,102209.25
2022-09-20T20:33:33.591Z,102214.09
2022-09-20T20:36:01.549Z,102211.97
2022-09-20T20:38:30.114Z,102209.78
2022-09-20T20:41:05.809Z,102225.47
2022-09-20T20:43:38.180Z,102223.94
2022-09-20T20:46:06.958Z,102223.13
2022-09-20T20:48:33.751Z,102211.69
2022-09-20T20:51:11.721Z,102211.47
2022-09-20T20:53:47.657Z,102209.94
2022-09-20T20:56:18.759Z,102208.03
2022-09-20T20:58:46.967Z,102205.66
2022-09-20T21:01:18.067Z,102214.78
2022-09-20T21:03:53.476Z,102216.00
2022-09-20T21:06:23.404Z,102212.19
2022-09-20T21:08:50.190Z,102218.53
2022-09-20T21:11:23.627Z,102208.13
2022-09-20T21:13:51.159Z,102206.38
2022-09-20T21:16:21.104Z,102201.22
2022-09-20T21:18:48.841Z,102200.22
2022-09-20T21:21:33.308Z,102207.44
2022-09-20T21:24:02.517Z,102210.16
2022-09-20T21:26:33.895Z,102208.41
2022-09-20T21:29:02.684Z,102215.84
2022-09-20T21:31:31.925Z,102225.47
2022-09-20T21:33:58.920Z,102219.19
2022-09-20T21:36:28.333Z,102222.25
2022-09-20T21:38:56.011Z,102225.72
2022-09-20T21:41:25.461Z,102218.59
2022-09-20T21:43:55.216Z,102222.44
2022-09-20T21:46:26.324Z,102225.03
2022-09-20T21:48:53.372Z,102228.00
2022-09-20T21:51:21.185Z,102227.00
2022-09-20T21:53:49.879Z,102230.31
2022-09-20T21:56:17.675Z,102222.41
2022-09-20T21:58:46.028Z,102229.84
2022-09-20T22:01:14.320Z,102227.63
2022-09-20T22:03:49.208Z,102227.56
2022-09-20T22:06:18.351Z,102230.78
2022-09-20T22:08:51.643Z,102233.34
2022-09-20T22:11:20.806Z,102234.78
2022-09-20T22:13:49.745Z,102234.06
2022-09-20T22:16:19.071Z,102235.84
2022-09-20T22:18:46.898Z,102237.03
2022-09-20T22:21:16.517Z,102235.97
2022-09-20T22:23:43.776Z,102226.91
2022-09-20T22:26:13.852Z,102235.25
2022-09-20T22:28:41.390Z,102244.69
2022-09-20T22:31:11.670Z,102245.59
2022-09-20T22:33:44.039Z,102245.09
2022-09-20T22:36:14.050Z,102251.38
2022-09-20T22:38:41.878Z,102248.41
2022-09-20T22:41:09.232Z,102246.41
2022-09-20T22:43:36.714Z,102245.72
2022-09-20T22:46:05.845Z,102249.28
2022-09-20T22:48:33.829Z,102244.69
2022-09-20T22:51:01.692Z,102247.47
2022-09-20T22:53:31.277Z,102248.22
2022-09-20T22:56:08.811Z,102245.50
2022-09-20T22:58:41.755Z,102244.06
2022-09-20T23:01:10.621Z,102250.78
2022-09-20T23:03:39.400Z,102256.69
2022-09-20T23:06:23.119Z,102255.72
2022-09-20T23:08:51.876Z,102256.31
2022-09-20T23:11:19.712Z,102255.88
2022-09-20T23:13:46.903Z,102251.53
2022-09-20T23:16:19.428Z,102251.72
2022-09-20T23:18:47.012Z,102245.75
2022-09-20T23:21:14.365Z,102256.56
2022-09-20T23:23:43.438Z,102245.19
2022-09-20T23:26:18.094Z,102247.84
2022-09-20T23:28:48.026Z,102250.34
2022-09-20T23:31:16.660Z,102251.94
2022-09-20T23:33:51.707Z,102249.13
2022-09-20T23:36:19.699Z,102254.19
2022-09-20T23:38:47.647Z,102244.09
2022-09-20T23:41:17.076Z,102244.91
2022-09-20T23:43:44.339Z,102236.69
2022-09-20T23:46:12.478Z,102243.63
2022-09-20T23:48:41.721Z,102240.66
2022-09-20T23:51:12.262Z,102247.13
2022-09-20T23:53:39.435Z,102256.47
2022-09-20T23:56:07.344Z,102250.78
2022-09-20T23:58:36.484Z,102238.44
